Beaverton, OR (97006)

3:27 AM PST on December 11, 2016 (GMT -0800)
Heritage Village | | Change Station

Elev 171 ft 45.52 °N, 122.86 °W | Updated 24 seconds ago

Overcast
Overcast
41.4 °F
Feels Like 39 °F
N
3.7
Wind Variable Wind from SSE

Today
High -- | Low -- °F
--% Chance of Precip.
Yesterday
High -- | Low -- °F
Precip. -- in
Pressure 30.02 in
Visibility 10.0 miles
Clouds Scattered Clouds 1300 ft
Mostly Cloudy 3500 ft
Overcast 11000 ft
Windchill 39 °F
Dew Point 40 °F
Humidity 96%
Rainfall 0.04 in
Snow Depth Not available.
7:42 AM 4:27 PM
Waxing Gibbous, 91% visible
SPECI KHIO 111115Z AUTO 18007KT 10SM SCT013 BKN035 OVC110 05/04 A3002 RMK AO2 T00500039
Pressure 30.02 in
Visibility 10.0 miles
Clouds Scattered Clouds 1300 ft
Mostly Cloudy 3500 ft
Overcast 11000 ft
Windchill 39 °F
Dew Point 40 °F
Humidity 96%
Rainfall 0.04 in
Snow Depth Not available.
7:42 AM 4:27 PM
Waxing Gibbous, 91% visible
SPECI KHIO 111115Z AUTO 18007KT 10SM SCT013 BKN035 OVC110 05/04 A3002 RMK AO2 T00500039

10-Day Weather Forecast

Almanac

Astronomy

Dec. 11, 2016 Rise Set
Actual Time
Civil Twilight
Nautical Twilight
Astronomical Twilight
Moon
Length of Visible Light
Length of Day
Tomorrow will be .
, % of the Moon is Illuminated

Today's Extremes

State Highs State Lows

Community

WunderPhotos

Upload Photos

1,956,710 photos uploaded!

WunderBlog® & News

Nearby

Air Quality

  Air Quality AQ Index Pollutant
Not available.

Snow Depth

Station Depth Elevation

Earthquake Activity

City Distance Mag. Time & Date
Minimum magnitude displayed is 2.5.

Coastal Water Temperatures

Place Temperature

Stations

Nearby Weather Stations

Station Location Temp. Windchill Dew Point Humidity Wind Precip. Elev Updated Type
                   

Watches & Warnings

There are currently no watches in effect.